createdAt,value
2024-05-09T00:04:48.685Z,969.45
2024-05-09T00:19:50.797Z,969.41
2024-05-09T00:34:52.876Z,969.26
2024-05-09T00:49:54.945Z,969.17
2024-05-09T01:04:57.134Z,969.15
2024-05-09T01:19:59.376Z,969.15
2024-05-09T01:35:01.518Z,969.23
2024-05-09T01:50:03.736Z,969.34
2024-05-09T02:05:06.170Z,969.44
2024-05-09T02:20:13.151Z,969.59
2024-05-09T02:35:18.244Z,969.73
2024-05-09T02:50:29.079Z,969.93
2024-05-09T03:05:36.682Z,970.1
2024-05-09T03:20:39.487Z,970.36
2024-05-09T03:35:41.963Z,970.67
2024-05-09T03:50:44.079Z,971.04
2024-05-09T04:05:46.246Z,971.39
2024-05-09T04:20:48.519Z,971.74
2024-05-09T04:35:50.714Z,972.16
2024-05-09T04:50:53.177Z,972.36
2024-05-09T05:05:55.850Z,972.42
2024-05-09T05:20:58.155Z,972.64
2024-05-09T05:36:00.620Z,972.8
2024-05-09T05:51:04.627Z,972.9
2024-05-09T06:06:07.080Z,973.17
2024-05-09T06:21:09.290Z,973.35
2024-05-09T06:36:11.448Z,973.57
2024-05-09T06:51:13.607Z,973.81
2024-05-09T07:06:15.815Z,973.99
2024-05-09T07:21:18.154Z,974.18
2024-05-09T07:36:20.365Z,974.31
2024-05-09T08:06:27.494Z,974.73
2024-05-09T08:21:29.635Z,974.82
2024-05-09T08:36:31.753Z,974.98
2024-05-09T08:51:33.782Z,975.13
2024-05-09T09:06:35.894Z,975.35
2024-05-09T09:21:37.930Z,975.62
2024-05-09T09:36:39.947Z,975.89
2024-05-09T09:51:41.959Z,975.93
2024-05-09T10:06:44.020Z,976.14
2024-05-09T10:21:46.057Z,976.24
2024-05-09T10:36:48.110Z,976.3
2024-05-09T10:51:50.331Z,976.5
2024-05-09T11:06:52.375Z,976.68
2024-05-09T11:21:54.460Z,976.82
2024-05-09T11:36:56.506Z,976.85
2024-05-09T11:51:58.675Z,976.93
2024-05-09T12:07:00.769Z,977.17
2024-05-09T12:22:02.841Z,977.26
2024-05-09T12:37:04.938Z,977.46
2024-05-09T12:52:07.279Z,977.71
2024-05-09T13:07:09.543Z,977.9
2024-05-09T13:22:11.876Z,978.03
2024-05-09T13:37:14.107Z,978.11
2024-05-09T13:52:16.207Z,978.14
2024-05-09T14:07:18.309Z,978.26
2024-05-09T14:22:20.388Z,978.26
2024-05-09T14:37:22.457Z,978.22
2024-05-09T14:52:24.500Z,978.21
2024-05-09T15:07:26.615Z,978.16
2024-05-09T15:22:28.622Z,978.2
2024-05-09T15:37:30.624Z,978.07
2024-05-09T15:52:32.671Z,977.9
2024-05-09T16:07:34.657Z,977.71
2024-05-09T16:22:36.640Z,977.58
2024-05-09T16:37:38.745Z,977.38
2024-05-09T16:52:40.840Z,977.15
2024-05-09T17:07:42.899Z,976.81
2024-05-09T17:22:44.886Z,976.59
2024-05-09T17:37:46.964Z,976.34
2024-05-09T17:52:49.282Z,976.12
2024-05-09T18:07:51.371Z,975.83
2024-05-09T18:22:53.478Z,975.63
2024-05-09T18:37:55.506Z,975.34
2024-05-09T18:52:58.319Z,975.08
2024-05-09T19:08:00.495Z,974.82
2024-05-09T19:23:02.620Z,974.68
2024-05-09T19:38:04.866Z,974.4
2024-05-09T19:53:06.916Z,974.16
2024-05-09T20:08:08.985Z,973.98
2024-05-09T20:23:11.269Z,973.7
2024-05-09T20:38:13.590Z,973.53
2024-05-09T20:53:15.757Z,973.34
2024-05-09T21:08:17.867Z,973.08
2024-05-09T21:23:20.025Z,972.84
2024-05-09T21:38:22.084Z,972.71
2024-05-09T21:53:24.247Z,972.5
2024-05-09T22:08:26.194Z,972.26
2024-05-09T22:23:28.331Z,972.05
2024-05-09T22:38:30.403Z,971.77
2024-05-09T22:53:32.395Z,971.6
2024-05-09T23:08:34.376Z,971.4
2024-05-09T23:23:36.378Z,971.24
2024-05-09T23:38:38.581Z,971.15
2024-05-09T23:53:40.567Z,970.98
